VVPB/HUI METAR and TAF weather

Enter ICAO airport designator
Station Type Date Time Source
VVPB METAR 2021/01/17 19:30 UTC NOAA

VVPB 171930Z 33014KT 5000 -RA SCT008 SCT013 BKN030 18/16 Q1022 NOSIG


Station Type Date Time Source
VVPB Decoded METAR 2021/01/17 19:30 UTC NOAA

Hue, Vietnam (VVPB) 16-24N 107-41E 17M
Jan 17, 2021 - 02:30 PM EST / 2021.01.17 1930 UTC
Wind: from the NNW (330 degrees) at 16 MPH (14 KT):0
Visibility: 3 mile(s):0
Sky conditions: mostly cloudy
Weather: light rain
Temperature: 64 F (18 C)
Dew Point: 60 F (16 C)
Relative Humidity: 88%
Pressure (altimeter): 30.18 in. Hg (1022 hPa)
ob: VVPB 171930Z 33014KT 5000 -RA SCT008 SCT013 BKN030 18/16 Q1022 NOSIG
cycle: 19

Station Type Date Time Source
VVPB TAF 2021/01/17 18:00 UTC NOAA

TAF VVPB 171700Z 1718/1818 33010KT 4000 RA BR SCT005 SCT010 BKN030
TEMPO 1722/1802 2500 RA BR
TEMPO 1810/1815 2000 RA BR

Example: see airport list